Weather observations for the past three days for
Tappahannock-Essex County Airport
Metric (Imperial)
Date Time (edt) Wind (kph) Vis. (km) Weather Sky Cond. Temperature (ºC) Relative Humidity Wind Chill (°C) Heat Index (°C) Pressure Precipitation (cm)
Air Dwpt 6 hour altimeter (cm) sea level (mb) 1 hr 3 hr 6 hr
Max. Min.
10 05:15 Calm 16.09 Fair CLR 13.3 13.3 100% 75.9 0.0
10 04:55 W 6 16.09 Fair CLR 14.4 14.1 98% 75.87 0.0
10 04:35 W 9 16.09 Fair CLR 14.7 14.5 99% 75.87 0.0
10 04:15 SW 9 16.09 Fair CLR 14.8 14.5 98% 75.87 0.0
10 03:55 SW 9 16.09 Fair CLR 14.5 14.4 99% 75.84 0.0
10 03:35 SW 7 16.09 Fair CLR 14.3 14.2 99% 75.84 0.0
10 03:15 SW 7 16.09 Fair CLR 14.6 14.4 99% 75.84 0.0
10 02:55 SW 6 16.09 Fair CLR 15.3 14.1 93% 75.84 0.0
10 02:35 SW 6 16.09 Fair CLR 15.4 13.9 91% 75.84 0.0
10 02:15 SW 7 16.09 Fair CLR 15.8 13.7 87% 75.84 0.0
10 01:55 SW 6 16.09 Fair CLR 16 13.2 21.3 15.8 84% 75.84 0.0
10 01:35 SW 6 16.09 Fair CLR 16 13.1 83% 75.87 0.0
10 01:15 SW 6 16.09 Fair CLR 15.9 12.9 83% 75.87 0.0
10 00:55 Calm 16.09 Fair CLR 16 12.7 81% 75.87 0.0
10 00:35 Calm 16.09 Partly Cloudy SCT090 16.3 12.7 79% 75.87 0.0
10 00:15 Calm 16.09 Fair CLR 16.5 12.6 78% 75.87 0.0
09 23:55 Calm 16.09 Fair CLR 16.7 12.6 77% 75.84 0.0
09 23:35 Calm 16.09 Fair CLR 16.7 12.6 77% 75.84 0.0
09 23:15 Calm 16.09 Fair CLR 16.9 12.5 75% 75.84 0.0
09 22:55 Calm 16.09 Fair CLR 16.7 12.2 75% 75.82 0.0
09 22:35 S 6 16.09 Fair CLR 16.6 12 74% 75.82 0.0
09 22:15 Calm 16.09 Fair CLR 16.7 12 74% 75.79 0.0
09 21:55 Calm 16.09 Fair CLR 17.3 12 71% 75.79 0.0
09 21:35 Calm 16.09 Fair CLR 16.4 12.2 76% 75.77 0.0
09 21:15 Calm 16.09 Fair CLR 16.3 12.5 78% 75.77 0.0
09 20:55 Calm 16.09 Fair CLR 17 12.5 75% 75.74 0.0
09 20:35 Calm 16.09 Fair CLR 17.7 12.3 71% 75.72 0.0
09 20:15 Calm 16.09 Fair CLR 19.7 12.2 62% 75.69 0.0
09 19:55 Calm 16.09 Fair CLR 21.5 11.6 25.6 21.5 53% 75.69 0.0
09 19:35 Calm 16.09 Fair CLR 22.5 11.5 50% 75.69 0.0
09 19:15 SW 6 16.09 Partly Cloudy SCT100 23.3 11.2 47% 75.69 0.0
09 18:55 SW 7 16.09 Overcast OVC100 23.3 11 46% 75.69 0.0
09 18:35 SW 9 16.09 Partly Cloudy SCT100 23.3 10.6 45% 75.69 0.0
09 18:15 SW 13 16.09 Fair CLR 24.5 10.6 42% 26 75.69 0.0
09 17:55 SW 19 16.09 Partly Cloudy SCT100 24.7 10.3 40% 26 75.67 0.0
09 17:35 SW 13 G 30 16.09 Fair CLR 24.4 10.1 41% 25 75.67 0.0
09 17:15 SW 19 G 30 16.09 Partly Cloudy SCT095 24.8 9.8 39% 26 75.67 0.0
09 16:55 SW 15 G 30 16.09 Partly Cloudy SCT065 SCT095 24.3 10 41% 25 75.67 0.0
09 16:35 SW 15 16.09 Partly Cloudy SCT095 25.4 10 38% 26 75.67 0.0
09 16:15 S 13 G 26 16.09 Fair CLR 25.4 10.1 38% 26 75.67 0.0
09 15:55 W 13 16.09 Mostly Cloudy SCT075 BKN090 25.2 9.9 38% 26 75.67 0.0
09 15:35 SW 13 16.09 Overcast SCT060 SCT075 OVC085 24 9.4 40% 25 75.72 0.0
09 15:15 S 13 16.09 Partly Cloudy SCT060 SCT075 SCT090 24.9 10 39% 26 75.72 0.0
09 14:55 SW 13 16.09 Partly Cloudy SCT055 25.1 9.9 38% 26 75.74 0.0
09 14:35 SW 19 G 35 16.09 Mostly Cloudy SCT055 SCT070 BKN080 24.7 10.1 40% 26 75.79 0.0
09 14:15 S 15 G 26 16.09 Mostly Cloudy BKN055 BKN070 BKN080 23.6 10.1 43% 75.79 0.0
09 13:55 S 15 G 30 16.09 Mostly Cloudy BKN065 23.7 10.1 24.1 14.5 42% 75.79 0.0
09 13:35 S 19 G 26 16.09 Mostly Cloudy BKN065 BKN070 23.5 10.3 43% 75.79 0.0
09 13:15 SW 13 16.09 Mostly Cloudy BKN050 BKN060 22.8 9.5 43% 75.84 0.0
09 12:55 S 13 G 28 16.09 Partly Cloudy SCT049 SCT060 22.2 10.4 47% 75.84 0.0
09 12:35 S 17 16.09 Fair CLR 21.9 10.8 49% 75.87 0.0
09 12:15 S 17 G 28 16.09 Fair CLR 21.6 10.9 51% 75.87 0.0
09 11:55 SW 20 G 28 16.09 Fair CLR 21.5 10.9 51% 75.87 0.0
09 11:35 S 22 G 30 16.09 Fair CLR 21.3 11.6 54% 75.92 0.0
09 11:15 S 15 16.09 Fair CLR 20.4 12.1 59% 75.92 0.0
09 10:55 S 13 16.09 Fair CLR 19.1 11.5 62% 75.97 0.0
09 10:35 SW 13 16.09 Fair CLR 19.2 11.7 62% 76 0.0
09 10:15 S 15 G 28 16.09 Fair CLR 18.4 11.3 63% 76 0.0
09 09:55 SW 15 16.09 Fair CLR 18.1 11.9 67% 76.02 0.0
09 09:35 S 13 16.09 Fair CLR 17.5 11.9 70% 76.02 0.0
09 09:15 S 15 16.09 Fair CLR 17 11.8 72% 76.02 0.0
09 08:55 S 9 16.09 Fair CLR 15.9 11.6 76% 76.02 0.0
09 08:35 S 7 16.09 Fair CLR 15.1 11.5 79% 76.05 0.0
09 08:15 S 11 16.09 Fair CLR 14.9 11.3 79% 76.02 0.0
09 07:55 S 11 16.09 Fair CLR 14.4 11.5 14.4 11 83% 76.02 0.0
09 07:35 S 7 16.09 Fair CLR 13.3 11.2 87% 76.02 0.0
09 07:15 S 7 16.09 Fair CLR 12.6 11.2 91% 76.02 0.0
09 06:55 S 9 16.09 Fair CLR 12 11 94% 76.02 0.0
09 06:35 S 7 16.09 Fair CLR 11.4 11 97% 76.02 0.0
09 06:15 S 7 16.09 Fair CLR 11.2 11 99% 76.02 0.0
09 05:55 S 9 16.09 Fair CLR 11.4 10.8 96% 76.02 0.0
09 05:35 S 7 16.09 Fair CLR 11.5 10.8 96% 76.02 0.0
09 05:15 S 7 16.09 Fair CLR 11.5 10.5 94% 76.02 0.0
09 04:55 S 7 16.09 Fair CLR 11.7 10.4 92% 76 0.0
09 04:35 S 11 16.09 Fair CLR 11.8 10.2 90% 76 0.0
09 04:15 S 9 16.09 Fair CLR 11.7 10.1 90% 76 0.0
09 03:55 S 7 16.09 Fair CLR 11.6 9.8 89% 76.02 0.0
09 03:35 S 6 16.09 Fair CLR 11.3 9.6 89% 76.05 0.0
09 03:15 S 7 16.09 Fair CLR 11.2 9.1 87% 76.05 0.0
09 02:55 Calm 16.09 Fair CLR 11 8.5 85% 76.05 0.0
09 02:35 S 6 16.09 Fair CLR 11.5 8.2 80% 76.07 0.0
09 02:15 S 6 16.09 Fair CLR 11.9 8 77% 76.07 0.0
09 01:55 S 7 16.09 Fair CLR 11.9 8 18 11.7 77% 76.07 0.0
09 01:35 S 7 16.09 Fair CLR 12.4 8 75% 76.07 0.0
09 01:15 S 6 16.09 Fair CLR 12.6 7.8 73% 76.07 0.0
09 00:55 S 6 16.09 Fair CLR 12.5 7.6 72% 76.07 0.0
09 00:35 S 6 16.09 Fair CLR 11.8 7.6 76% 76.07 0.0
09 00:15 S 6 16.09 Fair CLR 11.7 7.5 76% 76.1 0.0
08 23:55 S 6 16.09 Fair CLR 12.2 7.5 73% 76.1 0.0
08 23:35 S 6 16.09 Fair CLR 12.4 7.2 71% 76.12 0.0
08 23:15 S 6 16.09 Fair CLR 12.5 7.4 71% 76.12 0.0
08 22:55 S 7 16.09 Fair CLR 12.5 7.5 72% 76.12 0.0
08 22:35 S 6 16.09 Fair CLR 12.9 7.3 69% 76.12 0.0
08 22:15 SE 7 16.09 Fair CLR 13.2 7.2 67% 76.12 0.0
08 21:55 SE 6 16.09 Fair CLR 13.8 7 64% 76.1 0.0
08 21:35 SE 9 16.09 Fair CLR 14.1 6.5 60% 76.1 0.0
08 21:15 SE 7 16.09 Fair CLR 14.6 5.7 55% 76.1 0.0
08 20:55 SE 11 16.09 Fair CLR 14.2 4.7 53% 76.07 0.0
08 20:35 Calm 16.09 Fair CLR 16.3 3.8 44% 76.05 0.0
08 20:15 Calm 16.09 Fair CLR 17 3.5 41% 76.05 0.0
08 19:55 S 6 16.09 Fair CLR 18.1 3.2 22.1 18.1 37% 76.02 0.0
08 19:35 S 9 16.09 Fair CLR 18.9 3.2 35% 76.02 0.0
08 19:15 S 9 16.09 Fair CLR 19.9 2.5 32% 76 0.0
08 18:55 S 9 16.09 Fair CLR 20.5 2.4 30% 76 0.0
08 18:35 SW 17 16.09 Fair CLR 20.9 2 29% 76.02 0.0
08 18:15 W 9 16.09 Fair CLR 21.4 2.4 29% 76.02 0.0
08 17:55 S 17 G 26 16.09 Fair CLR 21.6 2 27% 76.02 0.0
08 17:35 SW 11 16.09 Fair CLR 21.7 1.8 27% 76.02 0.0
08 17:15 W 15 G 28 16.09 Fair CLR 21.5 1.3 26% 76.02 0.0
08 16:55 S 11 G 26 16.09 Fair CLR 21.6 0.9 25% 76.02 0.0
08 16:35 SW 15 G 33 16.09 Fair CLR 21.6 0.7 25% 76.05 0.0
08 16:15 SW 17 G 33 16.09 Fair CLR 21.7 1.3 26% 76.05 0.0
08 15:55 SW 20 G 33 16.09 Fair CLR 21.6 1.2 26% 76.07 0.0
08 15:35 SW 17 16.09 Fair CLR 21.5 1.1 26% 76.1 0.0
08 15:15 SW 15 G 28 16.09 Fair CLR 21.5 1.3 26% 76.12 0.0
08 14:55 SW 9 16.09 Fair CLR 21.1 1.6 28% 76.12 0.0
08 14:35 S 24 G 30 16.09 Fair CLR 20.8 1.8 28% 76.12 0.0
08 14:15 SW 9 16.09 Fair CLR 20.4 2.3 30% 76.15 0.0
08 13:55 SW 15 16.09 Fair CLR 19.7 2 19.7 9.9 31% 76.2 0.0
08 13:35 SW 7 16.09 Fair CLR 19.7 2.7 33% 76.2 0.0
08 13:15 S 17 G 26 16.09 Fair CLR 19.4 2.6 33% 76.23 0.0
08 12:55 Calm 16.09 Fair CLR 18.7 2.2 33% 76.23 0.0
08 12:35 W 13 16.09 Fair CLR 18.2 2.9 36% 76.25 0.0
08 12:15 W 9 16.09 Fair CLR 18.4 2.2 34% 76.28 0.0
08 11:55 SW 13 16.09 Fair CLR 17.3 2.8 38% 76.3 0.0
08 11:35 SW 9 16.09 Fair CLR 16.7 2.8 40% 76.33 0.0
08 11:15 SW 7 16.09 Fair CLR 16.6 3.2 41% 76.33 0.0
08 10:55 Calm 16.09 Fair CLR 15.7 3 43% 76.33 0.0
08 10:35 Calm 16.09 Fair CLR 15.4 3.8 46% 76.33 0.0
08 10:15 W 7 16.09 Fair CLR 15.2 4.7 50% 76.33 0.0
08 09:55 S 6 16.09 Fair CLR 14.7 5.6 55% 76.33 0.0
08 09:35 SE 6 16.09 Fair CLR 14.1 5.2 55% 76.33 0.0
08 09:15 Calm 16.09 Fair CLR 13.6 5.5 58% 76.33 0.0
08 08:55 Calm 16.09 Fair CLR 12.9 7.5 70% 76.33 0.0
08 08:35 Calm 16.09 Fair CLR 12.2 7.9 75% 76.33 0.0
08 08:15 Calm 16.09 Fair CLR 11.3 8.4 83% 76.28 0.0
08 07:55 Calm 16.09 Fair CLR 9.8 9.8 9.8 5 100% 76.25 0.0 0.03
08 07:35 Calm 16.09 Fair CLR 8.5 8.5 100% 76.25 0.0
08 07:15 Calm 16.09 Fair CLR 6.8 6.8 100% 76.23 0.0
08 06:55 Calm 16.09 Fair CLR 5.5 5.5 100% 76.2 0.0
08 06:35 Calm 2.41 Fog/Mist VV007 5.2 5.2 100% 76.2 0.0
08 06:15 Calm 1.61 Fog/Mist VV007 5.7 5.7 100% 76.17 0.0
08 05:55 Calm 16.09 Fair CLR 6.3 6.3 100% 76.15 0.0 0.03
08 05:35 Calm 16.09 Fair CLR 7.1 7.1 100% 76.12 0.0
08 05:15 Calm 16.09 Fair CLR 7.1 7.1 100% 76.12 0.0
08 04:55 Calm 16.09 Fair CLR 6.7 6.7 100% 76.1 0.0
08 04:35 Calm 11.27 Fair CLR 6.8 6.8 100% 76.07 0.0
08 04:15 W 6 8.05 Fog/Mist CLR 6.7 6.7 100% 76.07 0.0
08 03:55 W 7 11.27 Fair CLR 7.5 7.5 100% 6 76.05 0.0
08 03:35 W 7 8.05 Fog/Mist CLR 7.5 7.5 100% 6 76.05 0.0
08 03:15 W 6 11.27 Fair CLR 7.5 7.5 100% 76.05 0.0
08 02:55 W 7 11.27 Fair CLR 7.7 7.7 100% 7 76.02 0.0
08 02:35 W 7 4.83 Fog/Mist CLR 5.7 5.7 100% 4 76 0.0
08 02:15 Calm 4.83 Fog/Mist CLR 5.3 5.3 100% 76 0.0
08 01:55 S 6 6.44 Fog/Mist CLR 5.8 5.8 10 5.6 100% 76 0.0
08 01:35 Calm 8.05 Fog/Mist CLR 5.9 5.9 100% 76 0.0
08 01:15 Calm 8.05 Fog/Mist CLR 5.9 5.9 100% 76 0.0
08 00:55 Calm 11.27 Fair CLR 5.8 5.8 100% 75.97 0.0
08 00:35 W 6 16.09 Fair CLR 7.3 7.3 100% 75.97 0.0
08 00:15 Calm 11.27 Fair CLR 6.7 6.7 100% 75.97 0.0
07 23:55 Calm 16.09 Fair CLR 6.8 6.8 100% 75.95 0.0
07 23:35 Calm 1.61 Fog/Mist VV007 7 7 100% 75.95 0.0
07 23:15 Calm 8.05 Fog/Mist SCT080 7.3 7.3 100% 75.95 0.0
07 22:55 Calm 8.05 Fog/Mist SCT080 7.5 7.5 100% 75.95 0.0
07 22:35 W 6 16.09 Fair CLR 8.1 8.1 100% 75.95 0.0
07 22:15 Calm 16.09 Fair CLR 7.6 7.6 100% 75.92 0.0
07 21:55 Calm 16.09 Fair CLR 8.2 8.2 100% 75.92 0.0
07 21:35 Calm 16.09 Partly Cloudy SCT120 8.6 8.6 100% 75.95 0.0
07 21:15 Calm 16.09 Mostly Cloudy BKN120 9.2 9.2 100% 75.92 0.0
07 20:55 W 6 16.09 Overcast OVC110 9.7 9.7 100% 75.9 0.0
07 20:35 W 6 16.09 Overcast OVC110 9.7 9.7 100% 75.87 0.0
07 20:15 W 6 16.09 Overcast BKN100 OVC120 9.6 9.6 100% 75.87 0.0
07 19:55 Calm 16.09 Overcast BKN100 OVC120 10 10 14.5 10 100% 75.84 0.0 0.18
07 19:35 Calm 16.09 Mostly Cloudy BKN090 10.1 10.1 100% 75.82 0.0
07 19:15 Calm 16.09 Partly Cloudy SCT090 10.2 9.1 93% 75.82 0.0
07 18:55 SW 6 16.09 Overcast SCT009 SCT070 OVC090 10.7 10.1 96% 75.82 0.0
07 18:35 S 6 16.09 Overcast SCT009 OVC090 10.7 9.8 94% 75.82 0.0
07 18:15 Calm 16.09 Overcast OVC080 10.7 8.5 86% 75.79 0.0
07 17:55 Calm 16.09 Overcast OVC080 10.9 8.7 86% 75.79 0.0 0.13
07 17:35 Calm 16.09 Light Rain SCT049 BKN070 OVC080 10.6 8.6 88% 75.79 0.0 0.13
07 16:35 Calm 16.09 Overcast OVC065 12.3 6.4 68% 75.84 0.0
07 16:15 N 6 16.09 Drizzle OVC055 13 6.7 66% 75.79 0.0
07 15:55 Calm 16.09 Light Rain OVC055 13.7 3.9 52% 75.82 0.0
07 15:35 Calm 16.09 Overcast OVC055 13.9 3.8 51% 75.82 0.0
07 15:15 N 6 16.09 Light Drizzle OVC049 13.5 4 53% 75.84 0.0
07 14:55 Calm 16.09 Overcast OVC049 13.8 2.2 46% 75.87 0.0
07 14:35 NE 9 16.09 Overcast OVC049 14.2 2.4 45% 75.84 0.0
07 14:15 E 7 16.09 Overcast OVC049 14.4 4 50% 75.82 0.0
07 13:55 E 7 16.09 Overcast OVC047 13.7 4 14.2 12.1 52% 75.87 0.0
07 13:35 E 9 16.09 Overcast OVC047 13.5 3.9 53% 75.9 0.0
07 13:15 NE 13 16.09 Overcast OVC045 12.8 7.1 69% 75.92 0.0
07 12:55 NE 6 16.09 Overcast OVC045 12.6 6.9 68% 75.92 0.0
07 12:35 N 6 16.09 Overcast OVC043 12.4 6.7 68% 75.95 0.0
07 12:15 N 9 16.09 Light Rain SCT034 OVC043 13.3 5.5 59% 75.95 0.0
07 11:55 NE 11 16.09 Overcast OVC041 13.8 5 56% 75.95 0.0
07 11:35 N 9 16.09 Overcast OVC041 14 5.2 56% 75.95 0.0
07 11:15 NE 11 16.09 Overcast OVC041 14 6.2 60% 75.95 0.0
07 10:55 N 11 16.09 Overcast OVC039 14 6.5 61% 75.95 0.0
07 10:35 NE 15 16.09 Overcast OVC039 14.1 7.6 65% 75.97 0.0
07 10:15 N 11 16.09 Overcast SCT021 OVC039 14.1 8.2 68% 75.97 0.0
07 09:55 N 9 16.09 Overcast SCT019 OVC037 14 9.9 77% 75.97 0.0
07 09:35 N 11 16.09 Overcast OVC037 14 10 77% 75.95 0.0
07 09:15 NE 7 16.09 Overcast OVC035 13.7 9.5 76% 75.95 0.0
07 08:55 N 7 16.09 Overcast OVC035 13.6 9.1 74% 75.95 0.0
07 08:35 N 13 16.09 Overcast OVC035 13.6 9 74% 75.95 0.0
07 08:15 N 9 16.09 Overcast SCT020 OVC033 13.9 9.8 77% 75.95 0.0
07 07:55 NE 13 16.09 Overcast SCT018 OVC033 14 11 18.9 14 82% 75.92 0.0
07 07:35 N 13 16.09 Overcast SCT016 OVC033 14 10.9 82% 75.92 0.0
07 07:15 N 11 16.09 Overcast OVC031 14.1 10.9 81% 75.92 0.0
07 06:55 N 11 16.09 Overcast OVC031 14.2 10.8 80% 75.9 0.0
07 06:35 N 9 16.09 Overcast OVC031 14.3 10.8 80% 75.84 0.0
07 06:15 N 9 16.09 Overcast OVC029 14.5 11.1 80% 75.9 0.0
07 05:55 N 11 16.09 Overcast SCT013 OVC029 14.6 12.1 85% 75.9 0.0
07 05:35 N 9 16.09 Overcast BKN013 OVC029 14.7 13.5 93% 75.87 0.0
Date Time (edt) Wind (kph) Vis. (km) Weather Sky Cond. Air Dwpt Max. Min. Relative Humidity Wind Chill (°C) Heat Index (°C) altimeter (cm) sea level (mb) 1 hr 3 hr 6 hr
6 hour
Temperature (ºC) Pressure Precipitation (cm)